sensor_id;sensor_type;location;lat;lon;timestamp;P1;durP1;ratioP1;P2;durP2;ratioP2
50563;SDS011;36514;52.590;21.448;2023-06-10T00:01:43;1983.05;;;990.13;;
50563;SDS011;36514;52.590;21.448;2023-06-10T00:11:41;1978.04;;;991.54;;
50563;SDS011;36514;52.590;21.448;2023-06-10T00:21:38;1994.14;;;997.68;;
50563;SDS011;36514;52.590;21.448;2023-06-10T00:31:35;1698.36;;;998.71;;
50563;SDS011;36514;52.590;21.448;2023-06-10T00:41:32;1638.96;;;995.67;;
50563;SDS011;36514;52.590;21.448;2023-06-10T00:51:29;1606.03;;;995.39;;
50563;SDS011;36514;52.590;21.448;2023-06-10T01:01:25;1509.83;;;996.05;;
50563;SDS011;36514;52.590;21.448;2023-06-10T01:11:25;1308.16;;;995.49;;
50563;SDS011;36514;52.590;21.448;2023-06-10T01:21:24;1116.57;;;949.68;;
50563;SDS011;36514;52.590;21.448;2023-06-10T01:31:38;1151.13;;;968.87;;
50563;SDS011;36514;52.590;21.448;2023-06-10T01:41:35;1084.45;;;940.84;;
50563;SDS011;36514;52.590;21.448;2023-06-10T01:51:28;1037.07;;;887.47;;
50563;SDS011;36514;52.590;21.448;2023-06-10T02:01:25;1000.00;;;898.15;;
50563;SDS011;36514;52.590;21.448;2023-06-10T02:11:22;966.42;;;864.91;;
50563;SDS011;36514;52.590;21.448;2023-06-10T02:21:18;978.30;;;870.75;;
50563;SDS011;36514;52.590;21.448;2023-06-10T02:31:16;977.88;;;883.02;;
50563;SDS011;36514;52.590;21.448;2023-06-10T02:41:13;935.34;;;841.07;;
50563;SDS011;36514;52.590;21.448;2023-06-10T02:51:10;929.94;;;841.50;;
50563;SDS011;36514;52.590;21.448;2023-06-10T03:01:07;953.05;;;858.13;;
50563;SDS011;36514;52.590;21.448;2023-06-10T03:11:05;945.50;;;855.11;;
50563;SDS011;36514;52.590;21.448;2023-06-10T03:21:02;1003.86;;;904.17;;
50563;SDS011;36514;52.590;21.448;2023-06-10T03:30:59;998.76;;;892.25;;
50563;SDS011;36514;52.590;21.448;2023-06-10T03:40:57;1116.53;;;938.49;;
50563;SDS011;36514;52.590;21.448;2023-06-10T03:50:55;1321.65;;;985.02;;
50563;SDS011;36514;52.590;21.448;2023-06-10T04:00:53;1216.30;;;976.28;;
50563;SDS011;36514;52.590;21.448;2023-06-10T04:10:51;1572.69;;;989.41;;
50563;SDS011;36514;52.590;21.448;2023-06-10T04:20:49;1536.38;;;993.59;;
50563;SDS011;36514;52.590;21.448;2023-06-10T04:30:46;1979.47;;;995.98;;
50563;SDS011;36514;52.590;21.448;2023-06-10T04:40:43;1996.43;;;997.05;;
50563;SDS011;36514;52.590;21.448;2023-06-10T04:50:41;1999.90;;;997.42;;
50563;SDS011;36514;52.590;21.448;2023-06-10T05:00:41;1999.90;;;993.56;;
50563;SDS011;36514;52.590;21.448;2023-06-10T05:10:38;1973.74;;;990.93;;
50563;SDS011;36514;52.590;21.448;2023-06-10T05:20:36;1999.90;;;992.51;;
50563;SDS011;36514;52.590;21.448;2023-06-10T05:30:34;1961.01;;;985.89;;
50563;SDS011;36514;52.590;21.448;2023-06-10T07:17:04;1118.60;;;887.73;;
50563;SDS011;36514;52.590;21.448;2023-06-10T07:27:14;1663.30;;;955.04;;
50563;SDS011;36514;52.590;21.448;2023-06-10T07:37:15;1757.04;;;975.25;;
50563;SDS011;36514;52.590;21.448;2023-06-10T07:47:12;1673.26;;;946.22;;
50563;SDS011;36514;52.590;21.448;2023-06-10T08:36:08;940.23;;;859.53;;
50563;SDS011;36514;52.590;21.448;2023-06-10T08:46:11;1444.65;;;814.50;;
50563;SDS011;36514;52.590;21.448;2023-06-10T08:56:17;1597.52;;;859.52;;
50563;SDS011;36514;52.590;21.448;2023-06-10T09:06:14;1284.69;;;839.24;;
50563;SDS011;36514;52.590;21.448;2023-06-10T09:16:12;1067.49;;;817.41;;
50563;SDS011;36514;52.590;21.448;2023-06-10T09:26:19;1572.90;;;861.85;;
50563;SDS011;36514;52.590;21.448;2023-06-10T09:36:22;1629.89;;;882.24;;
50563;SDS011;36514;52.590;21.448;2023-06-10T09:46:25;1677.87;;;855.72;;
50563;SDS011;36514;52.590;21.448;2023-06-10T10:06:09;1643.50;;;883.57;;
50563;SDS011;36514;52.590;21.448;2023-06-10T10:35:26;1500.41;;;868.32;;
50563;SDS011;36514;52.590;21.448;2023-06-10T10:45:27;1684.71;;;765.89;;
50563;SDS011;36514;52.590;21.448;2023-06-10T11:05:15;1711.86;;;783.04;;
50563;SDS011;36514;52.590;21.448;2023-06-10T11:24:50;1724.35;;;859.13;;
50563;SDS011;36514;52.590;21.448;2023-06-10T12:03:36;1406.68;;;867.00;;
50563;SDS011;36514;52.590;21.448;2023-06-10T12:13:45;1732.77;;;862.28;;
50563;SDS011;36514;52.590;21.448;2023-06-10T12:42:54;1610.93;;;881.51;;
50563;SDS011;36514;52.590;21.448;2023-06-10T13:12:13;1396.44;;;848.91;;
50563;SDS011;36514;52.590;21.448;2023-06-10T13:21:47;1839.35;;;928.23;;
50563;SDS011;36514;52.590;21.448;2023-06-10T13:41:16;1779.92;;;868.44;;
50563;SDS011;36514;52.590;21.448;2023-06-10T13:51:21;1883.38;;;963.47;;
50563;SDS011;36514;52.590;21.448;2023-06-10T14:01:20;1877.19;;;961.63;;
50563;SDS011;36514;52.590;21.448;2023-06-10T14:11:11;1846.65;;;887.06;;
50563;SDS011;36514;52.590;21.448;2023-06-10T14:21:15;1592.88;;;826.96;;
50563;SDS011;36514;52.590;21.448;2023-06-10T14:31:11;1557.85;;;810.44;;
50563;SDS011;36514;52.590;21.448;2023-06-10T14:40:54;1907.69;;;957.47;;
50563;SDS011;36514;52.590;21.448;2023-06-10T14:50:57;1748.03;;;866.45;;
50563;SDS011;36514;52.590;21.448;2023-06-10T15:00:56;1948.21;;;955.77;;
50563;SDS011;36514;52.590;21.448;2023-06-10T15:10:47;1918.82;;;967.88;;
50563;SDS011;36514;52.590;21.448;2023-06-10T15:30:17;1933.89;;;926.47;;
50563;SDS011;36514;52.590;21.448;2023-06-10T16:56:48;1853.24;;;951.39;;
50563;SDS011;36514;52.590;21.448;2023-06-10T17:06:39;1849.36;;;848.92;;
50563;SDS011;36514;52.590;21.448;2023-06-10T17:16:36;1999.90;;;924.70;;
50563;SDS011;36514;52.590;21.448;2023-06-10T17:26:32;1999.90;;;997.63;;
50563;SDS011;36514;52.590;21.448;2023-06-10T17:36:32;1999.90;;;984.31;;
50563;SDS011;36514;52.590;21.448;2023-06-10T17:46:29;1992.28;;;755.07;;
50563;SDS011;36514;52.590;21.448;2023-06-10T17:56:25;1999.90;;;925.25;;
50563;SDS011;36514;52.590;21.448;2023-06-10T18:06:20;1999.90;;;992.11;;
50563;SDS011;36514;52.590;21.448;2023-06-10T18:16:16;1999.90;;;994.80;;
50563;SDS011;36514;52.590;21.448;2023-06-10T18:26:11;1626.56;;;996.16;;
50563;SDS011;36514;52.590;21.448;2023-06-10T20:02:25;1087.30;;;932.59;;
50563;SDS011;36514;52.590;21.448;2023-06-10T20:12:22;1133.80;;;976.35;;
50563;SDS011;36514;52.590;21.448;2023-06-10T20:22:19;1359.84;;;985.78;;
50563;SDS011;36514;52.590;21.448;2023-06-10T20:32:17;1234.64;;;973.35;;
50563;SDS011;36514;52.590;21.448;2023-06-10T20:42:14;1387.34;;;993.41;;
50563;SDS011;36514;52.590;21.448;2023-06-10T20:52:10;1718.07;;;995.28;;
50563;SDS011;36514;52.590;21.448;2023-06-10T21:02:08;1883.63;;;996.70;;
50563;SDS011;36514;52.590;21.448;2023-06-10T21:12:04;1836.39;;;993.25;;
50563;SDS011;36514;52.590;21.448;2023-06-10T21:22:01;1963.92;;;996.87;;
50563;SDS011;36514;52.590;21.448;2023-06-10T21:31:59;1818.99;;;994.70;;
50563;SDS011;36514;52.590;21.448;2023-06-10T21:41:56;1589.43;;;993.66;;
50563;SDS011;36514;52.590;21.448;2023-06-10T21:51:54;1599.56;;;996.42;;
50563;SDS011;36514;52.590;21.448;2023-06-10T22:01:52;1999.90;;;993.65;;
50563;SDS011;36514;52.590;21.448;2023-06-10T22:11:49;1962.93;;;989.66;;
50563;SDS011;36514;52.590;21.448;2023-06-10T22:21:45;1999.90;;;990.46;;
50563;SDS011;36514;52.590;21.448;2023-06-10T22:31:41;1873.20;;;990.88;;
50563;SDS011;36514;52.590;21.448;2023-06-10T22:41:38;1853.67;;;990.65;;
50563;SDS011;36514;52.590;21.448;2023-06-10T22:51:34;1709.43;;;994.81;;
50563;SDS011;36514;52.590;21.448;2023-06-10T23:01:30;1770.98;;;994.39;;
50563;SDS011;36514;52.590;21.448;2023-06-10T23:11:27;1734.74;;;995.23;;
50563;SDS011;36514;52.590;21.448;2023-06-10T23:21:24;1809.92;;;997.14;;
50563;SDS011;36514;52.590;21.448;2023-06-10T23:31:21;1594.88;;;995.64;;
50563;SDS011;36514;52.590;21.448;2023-06-10T23:41:18;1694.45;;;994.83;;
50563;SDS011;36514;52.590;21.448;2023-06-10T23:51:09;1378.93;;;984.97;;
